| time (UTC) | temp F | wind direction | speed MPH | gust MPH | rain 1hr in | rain 24hr in | rain mn in | humidity % | barometer mb |
| 20260505180003 | 68 | 121 | 2.0 | 9.0 | 0.00 | 0.02 | 0.02 | 69 | 1006.9 |
| 20260505174502 | 68 | 244 | 3.0 | 8.0 | 0.00 | 0.02 | 0.02 | 69 | 1007.9 |
| 20260505173002 | 68 | 261 | 3.0 | 7.0 | 0.00 | 0.02 | 0.02 | 68 | 1008.0 |
| 20260505171503 | 67 | 197 | 3.0 | 10.0 | 0.00 | 0.02 | 0.02 | 68 | 1008.1 |
| 20260505170005 | 67 | 94 | 4.0 | 14.0 | 0.00 | 0.02 | 0.02 | 68 | 1008.1 |
| 20260505170003 | 67 | 94 | 3.0 | 14.0 | 0.00 | 0.02 | 0.02 | 68 | 1007.3 |
| 20260505163002 | 68 | 281 | 3.0 | 7.0 | 0.00 | 0.02 | 0.02 | 68 | 1008.2 |
| 20260505161502 | 68 | 257 | 2.0 | 7.0 | 0.00 | 0.02 | 0.02 | 68 | 1008.2 |
| 20260505153002 | 67 | 242 | 5.0 | 12.0 | 0.00 | 0.02 | 0.02 | 70 | 1008.0 |
| 20260505151502 | 67 | 109 | 3.0 | 9.0 | 0.00 | 0.02 | 0.02 | 70 | 1008.0 |
| 20260505124503 | 60 | 246 | 1.0 | 5.0 | 0.00 | 0.02 | 0.02 | 91 | 1007.8 |
| 20260505121502 | 58 | 253 | 1.0 | 5.0 | 0.01 | 0.02 | 0.02 | 93 | 1008.0 |
| 20260505120005 | 57 | 239 | 1.0 | 5.0 | 0.01 | 0.02 | 0.02 | 94 | 1008.0 |
| 20260505120003 | 57 | 239 | 1.0 | 5.0 | 0.01 | 0.02 | 0.02 | 94 | 1007.2 |
| 20260505114502 | 57 | 200 | 1.0 | 5.0 | 0.01 | 0.02 | 0.02 | 93 | 1007.9 |
| 20260505113002 | 57 | 141 | 3.0 | 6.0 | 0.02 | 0.02 | 0.02 | 92 | 1007.1 |
| 20260505111502 | 57 | 145 | 1.0 | 3.0 | 0.01 | 0.01 | 0.01 | 92 | 1007.5 |
| 20260505100005 | 63 | 308 | 1.0 | 5.0 | 0.00 | 0.00 | 0.00 | 70 | 1007.5 |
| 20260505100003 | 63 | 308 | 1.0 | 5.0 | 0.00 | 0.00 | 0.00 | 70 | 1006.7 |
| 20260505091501 | 63 | 242 | 2.0 | 7.0 | 0.00 | 0.00 | 0.00 | 68 | 1006.7 |
| 20260505090004 | 63 | 250 | 1.0 | 5.0 | 0.00 | 0.00 | 0.00 | 68 | 1006.5 |
| 20260505090002 | 63 | 250 | 1.0 | 5.0 | 0.00 | 0.00 | 0.00 | 68 | 1005.8 |
| 20260505083002 | 63 | 131 | 1.0 | 5.0 | 0.00 | 0.00 | 0.00 | 68 | 1006.2 |
| 20260505081503 | 63 | 188 | 1.0 | 7.0 | 0.00 | 0.00 | 0.00 | 67 | 1006.1 |
| 20260505080004 | 63 | 261 | 1.0 | 7.0 | 0.00 | 0.00 | 0.00 | 67 | 1006.1 |
| 20260505074503 | 63 | 264 | 1.0 | 5.0 | 0.00 | 0.00 | 0.00 | 67 | 1006.0 |
| 20260505071503 | 64 | 244 | 1.0 | 7.0 | 0.00 | 0.00 | 0.00 | 66 | 1005.6 |
| 20260505070004 | 64 | 126 | 2.0 | 6.0 | 0.00 | 0.00 | 0.00 | 66 | 1005.5 |
| 20260505063003 | 65 | 237 | 2.0 | 7.0 | 0.00 | 0.00 | 0.00 | 66 | 1005.7 |
| 20260505060012 | 65 | 240 | 1.0 | 7.0 | 0.00 | 0.00 | 0.00 | 66 | 1004.7 |
| 20260505060004 | 65 | 240 | 3.0 | 7.0 | 0.00 | 0.00 | 0.00 | 66 | 1005.3 |
| 20260505054503 | 65 | 131 | 3.0 | 11.0 | 0.00 | 0.00 | 0.00 | 65 | 1005.1 |
| 20260505053003 | 65 | 244 | 2.0 | 5.0 | 0.00 | 0.00 | 0.00 | 66 | 1005.0 |
| 20260505051502 | 65 | 235 | 2.0 | 6.0 | 0.00 | 0.00 | 0.00 | 66 | 1005.3 |
| 20260505041501 | 66 | 132 | 1.0 | 4.0 | 0.00 | 0.00 | 0.00 | 66 | 1005.0 |
| 20260505040006 | 66 | 260 | 1.0 | 4.0 | 0.00 | 0.00 | 0.00 | 67 | 1005.6 |
| 20260505034501 | 67 | 153 | 1.0 | 5.0 | 0.00 | 0.00 | 0.00 | 65 | 1005.0 |
| 20260505033002 | 67 | 127 | 3.0 | 9.0 | 0.00 | 0.00 | 0.00 | 64 | 1005.4 |
| 20260505031502 | 67 | 274 | 2.0 | 8.0 | 0.00 | 0.00 | 0.00 | 65 | 1005.5 |
| 20260505031500 | 67 | 274 | 1.0 | 8.0 | 0.00 | 0.00 | 0.00 | 65 | 1005.0 |
| 20260505030005 | 67 | 231 | 2.0 | 7.0 | 0.00 | 0.00 | 0.00 | 65 | 1005.3 |
| 20260505024503 | 67 | 192 | 3.0 | 7.0 | 0.00 | 0.00 | 0.00 | 64 | 1005.1 |
| 20260505024501 | 67 | 192 | 2.0 | 7.0 | 0.00 | 0.00 | 0.00 | 64 | 1004.6 |
| 20260505023001 | 67 | 233 | 1.0 | 5.0 | 0.00 | 0.00 | 0.00 | 63 | 1004.5 |
| 20260505021502 | 68 | 200 | 2.0 | 5.0 | 0.00 | 0.00 | 0.00 | 62 | 1004.8 |
| 20260505021500 | 68 | 200 | 1.0 | 5.0 | 0.00 | 0.00 | 0.00 | 62 | 1004.3 |
| 20260505020005 | 68 | 175 | 2.0 | 6.0 | 0.00 | 0.00 | 0.00 | 62 | 1004.7 |
| 20260505020003 | 68 | 175 | 2.0 | 6.0 | 0.00 | 0.00 | 0.00 | 62 | 1004.1 |
| 20260505014502 | 68 | 186 | 2.0 | 5.0 | 0.00 | 0.00 | 0.00 | 62 | 1004.6 |
| 20260505013003 | 69 | 203 | 1.0 | 4.0 | 0.00 | 0.00 | 0.00 | 61 | 1004.4 |
| 20260505013001 | 69 | 203 | 1.0 | 4.0 | 0.00 | 0.00 | 0.00 | 61 | 1003.9 |
| 20260505011502 | 69 | 185 | 1.0 | 5.0 | 0.00 | 0.00 | 0.00 | 60 | 1004.3 |
| 20260505010005 | 70 | 138 | 2.0 | 6.0 | 0.00 | 0.00 | 0.00 | 59 | 1004.3 |
| 20260505010003 | 70 | 138 | 0.0 | 6.0 | 0.00 | 0.00 | 0.00 | 59 | 1003.9 |
| 20260505004502 | 70 | 236 | 2.0 | 6.0 | 0.00 | 0.00 | 0.00 | 58 | 1004.3 |
| 20260505003002 | 71 | 169 | 1.0 | 4.0 | 0.00 | 0.00 | 0.00 | 56 | 1004.3 |
| 20260505003000 | 71 | 169 | 1.0 | 4.0 | 0.00 | 0.00 | 0.00 | 56 | 1003.8 |
| 20260505001501 | 71 | 145 | 0.0 | 8.0 | 0.00 | 0.00 | 0.00 | 55 | 1004.0 |
| 20260505000003 | 72 | 138 | 1.0 | 6.0 | 0.00 | 0.00 | 0.00 | 53 | 1004.7 |
| 20260504234501 | 73 | 238 | 3.0 | 9.0 | 0.00 | 0.00 | 0.00 | 51 | 1004.8 |
| 20260504233002 | 75 | 271 | 3.0 | 9.0 | 0.00 | 0.00 | 0.00 | 49 | 1004.9 |
| 20260504231501 | 75 | 243 | 4.0 | 13.0 | 0.00 | 0.00 | 0.00 | 51 | 1004.9 |
| 20260504230005 | 74 | 287 | 4.0 | 12.0 | 0.00 | 0.00 | 0.00 | 50 | 1004.9 |
| 20260504230003 | 74 | 287 | 4.0 | 12.0 | 0.00 | 0.00 | 0.00 | 50 | 1004.4 |
| 20260504224502 | 74 | 257 | 4.0 | 15.0 | 0.00 | 0.00 | 0.00 | 52 | 1005.1 |
| 20260504224500 | 74 | 257 | 4.0 | 15.0 | 0.00 | 0.00 | 0.00 | 52 | 1004.6 |
| 20260504223002 | 75 | 253 | 1.0 | 8.0 | 0.00 | 0.00 | 0.00 | 57 | 1004.6 |
| 20260504221502 | 74 | 182 | 2.0 | 8.0 | 0.00 | 0.00 | 0.00 | 56 | 1005.1 |
| 20260504221500 | 74 | 182 | 2.0 | 8.0 | 0.00 | 0.00 | 0.00 | 56 | 1004.7 |
| 20260504220004 | 75 | 249 | 3.0 | 7.0 | 0.00 | 0.00 | 0.00 | 55 | 1005.1 |
| 20260504214502 | 75 | 243 | 1.0 | 4.0 | 0.00 | 0.00 | 0.00 | 56 | 1005.6 |
| 20260504214500 | 75 | 243 | 0.0 | 4.0 | 0.00 | 0.00 | 0.00 | 56 | 1005.2 |
| 20260504213002 | 75 | 243 | 2.0 | 5.0 | 0.00 | 0.00 | 0.00 | 54 | 1005.8 |
| 20260504211502 | 75 | 159 | 3.0 | 8.0 | 0.00 | 0.00 | 0.00 | 54 | 1005.9 |
| 20260504210004 | 75 | 153 | 3.0 | 9.0 | 0.00 | 0.00 | 0.00 | 53 | 1006.0 |
| 20260504210002 | 75 | 153 | 3.0 | 9.0 | 0.00 | 0.00 | 0.00 | 53 | 1005.6 |
| 20260504204502 | 74 | 259 | 3.0 | 11.0 | 0.00 | 0.00 | 0.00 | 53 | 1006.2 |
| 20260504204500 | 74 | 259 | 3.0 | 11.0 | 0.00 | 0.00 | 0.00 | 53 | 1005.9 |
| 20260504203003 | 75 | 236 | 3.0 | 8.0 | 0.00 | 0.00 | 0.00 | 51 | 1006.5 |
| 20260504203001 | 75 | 236 | 4.0 | 8.0 | 0.00 | 0.00 | 0.00 | 51 | 1006.1 |
| 20260504201504 | 74 | 250 | 4.0 | 11.0 | 0.00 | 0.00 | 0.00 | 56 | 1006.7 |
| 20260504201501 | 74 | 250 | 2.0 | 11.0 | 0.00 | 0.00 | 0.00 | 56 | 1006.3 |
| 20260504200008 | 74 | 276 | 3.0 | 7.0 | 0.00 | 0.00 | 0.00 | 55 | 1006.5 |
| 20260504200005 | 74 | 276 | 3.0 | 7.0 | 0.00 | 0.00 | 0.00 | 55 | 1006.9 |
| 20260504193002 | 71 | 258 | 3.0 | 11.0 | 0.00 | 0.00 | 0.00 | 60 | 1007.6 |
| 20260504191503 | 71 | 244 | 1.0 | 4.0 | 0.00 | 0.00 | 0.00 | 63 | 1007.8 |
| 20260504190008 | 69 | 274 | 3.0 | 8.0 | 0.00 | 0.00 | 0.00 | 64 | 1007.8 |
| 20260504190005 | 69 | 274 | 2.0 | 8.0 | 0.00 | 0.00 | 0.00 | 64 | 1008.1 |
| 20260504184503 | 69 | 255 | 3.0 | 11.0 | 0.00 | 0.00 | 0.00 | 63 | 1008.0 |
| 20260504183004 | 69 | 255 | 3.0 | 8.0 | 0.00 | 0.00 | 0.00 | 62 | 1007.8 |
| 20260504183002 | 69 | 255 | 3.0 | 8.0 | 0.00 | 0.00 | 0.00 | 62 | 1007.5 |
| 20260504181505 | 69 | 262 | 4.0 | 11.0 | 0.00 | 0.00 | 0.00 | 62 | 1007.4 |